Time;durP1;ratioP1;P1;durP2;ratioP2;P2;SDS_P1;SDS_P2;PMS_P1;PMS_P2;Temp;Humidity;BMP_temperature;BMP_pressure;BME280_temperature;BME280_humidity;BME280_pressure;Samples;Min_cycle;Max_cycle;Signal;HPM_P1;HPM_P2
2022/11/27 15:41:58;;;;;;;;;7.00;5.00;;;;;17.97;53.04;101158.19;5111448;27;45521;-74
2022/11/27 15:44:25;;;;;;;;;4.00;4.00;;;;;18.29;53.74;101165.56;5105243;27;45867;-85
2022/11/27 15:46:53;;;;;;;;;10.00;7.50;;;;;18.76;53.47;101151.06;5101891;27;45799;-86
2022/11/27 15:49:18;;;;;;;;;7.50;7.50;;;;;19.28;53.56;101145.88;5094853;27;45472;-76
2022/11/27 15:51:44;;;;;;;;;9.00;7.50;;;;;19.82;53.31;101145.78;5106491;27;47095;-77
2022/11/27 15:54:09;;;;;;;;;8.25;7.00;;;;;20.31;53.14;101158.63;5101070;27;45492;-79
2022/11/27 15:56:35;;;;;;;;;7.75;5.25;;;;;20.75;53.35;101149.34;5104421;27;45510;-82
2022/11/27 15:59:00;;;;;;;;;12.25;10.50;;;;;21.11;52.42;101157.81;5111177;27;48760;-76
2022/11/27 16:01:25;;;;;;;;;8.00;5.75;;;;;21.41;52.77;101147.81;5105016;27;56244;-77
2022/11/27 16:03:50;;;;;;;;;5.33;5.00;;;;;21.72;52.06;101152.19;5107930;27;51170;-78
2022/11/27 16:06:16;;;;;;;;;7.33;6.00;;;;;21.97;52.10;101145.31;5103969;27;45547;-76
2022/11/27 16:08:41;;;;;;;;;4.67;4.67;;;;;22.22;51.53;101142.91;5100817;27;45489;-76
2022/11/27 16:11:13;;;;;;;;;8.67;7.00;;;;;22.45;51.29;101145.22;5106546;27;46042;-77
2022/11/27 16:13:38;;;;;;;;;8.00;5.00;;;;;22.64;51.06;101151.50;5106446;27;45514;-76
2022/11/27 16:16:05;;;;;;;;;6.00;6.00;;;;;22.82;51.15;101145.28;5106318;27;45786;-79
2022/11/27 16:18:31;;;;;;;;;5.00;4.00;;;;;22.96;50.69;101135.75;5091953;27;45558;-75
2022/11/27 16:21:05;;;;;;;;;8.00;6.00;;;;;23.07;50.18;101126.53;5112606;27;48332;-80
2022/11/27 16:23:31;;;;;;;;;6.67;6.00;;;;;23.13;50.20;101129.47;5109192;27;45489;-75
2022/11/27 16:25:57;;;;;;;;;7.00;5.67;;;;;23.20;49.61;101137.81;5107209;27;45545;-77
2022/11/27 16:28:23;;;;;;;;;5.33;5.33;;;;;23.27;49.80;101136.22;5105933;27;45490;-80
2022/11/27 16:30:55;;;;;;;;;7.67;6.00;;;;;23.37;49.71;101130.72;5101010;27;46371;-76
2022/11/27 16:33:20;;;;;;;;;8.00;7.00;;;;;23.42;49.45;101125.66;5106644;27;45404;-77
2022/11/27 16:35:46;;;;;;;;;4.33;4.33;;;;;23.55;49.47;101135.25;5110478;27;45647;-76
2022/11/27 16:38:12;;;;;;;;;10.00;6.33;;;;;23.63;49.39;101129.84;5094642;27;45683;-85
2022/11/27 16:40:37;;;;;;;;;4.67;4.00;;;;;23.74;48.99;101127.91;5106877;27;45594;-83
2022/11/27 16:43:03;;;;;;;;;5.67;5.00;;;;;23.82;48.89;101144.19;5109515;27;45350;-83
2022/11/27 16:45:28;;;;;;;;;7.00;6.00;;;;;23.88;48.66;101130.03;5105627;27;45288;-79
2022/11/27 16:47:54;;;;;;;;;9.67;6.67;;;;;23.95;48.44;101133.75;5109172;27;45386;-80
2022/11/27 16:50:19;;;;;;;;;10.67;7.00;;;;;23.99;48.28;101128.03;5096781;27;45537;-80
2022/11/27 16:52:44;;;;;;;;;9.33;9.33;;;;;24.04;48.29;101126.50;5099869;27;45397;-79
2022/11/27 16:55:10;;;;;;;;;6.33;6.00;;;;;24.07;48.15;101126.19;5096442;27;45424;-81
2022/11/27 16:57:35;;;;;;;;;9.00;7.33;;;;;24.10;48.31;101119.63;5088964;27;47168;-84
2022/11/27 17:00:00;;;;;;;;;10.00;8.00;;;;;24.15;47.95;101116.44;5076997;27;46120;-81
2022/11/27 17:02:27;;;;;;;;;9.33;9.33;;;;;24.17;47.76;101107.13;5091330;27;45404;-82
2022/11/27 17:04:53;;;;;;;;;6.00;6.00;;;;;24.23;47.49;101099.34;5096832;27;45484;-81
2022/11/27 17:07:19;;;;;;;;;8.00;8.00;;;;;24.24;47.40;101099.19;5095118;27;45470;-81
2022/11/27 17:09:45;;;;;;;;;7.33;7.00;;;;;24.24;47.59;101109.16;5099071;27;47252;-80
2022/11/27 17:12:10;;;;;;;;;8.00;8.00;;;;;24.24;47.07;101101.91;5089359;27;45480;-79
2022/11/27 17:14:36;;;;;;;;;6.33;6.33;;;;;24.22;47.38;101095.78;5077468;27;45474;-82
2022/11/27 17:17:01;;;;;;;;;8.00;8.00;;;;;24.24;47.18;101091.06;5093498;27;46015;-83
2022/11/27 17:19:28;;;;;;;;;6.33;5.67;;;;;24.26;46.98;101077.28;5100334;27;46145;-82
2022/11/27 17:21:54;;;;;;;;;12.00;8.67;;;;;24.30;46.97;101074.09;5088695;27;45544;-81
2022/11/27 17:24:19;;;;;;;;;6.00;6.00;;;;;24.33;46.85;101059.34;5086753;27;45517;-80
2022/11/27 17:26:46;;;;;;;;;6.00;6.00;;;;;24.39;46.92;101063.28;5094877;27;45522;-88
2022/11/27 17:29:14;;;;;;;;;6.33;5.00;;;;;24.43;46.64;101057.34;5087017;27;45472;-83
2022/11/27 17:31:39;;;;;;;;;8.00;6.00;;;;;24.47;46.52;101049.72;5094211;27;45501;-82
2022/11/27 17:34:06;;;;;;;;;8.00;7.00;;;;;24.52;46.49;101051.94;5090442;27;45492;-83
2022/11/27 17:36:32;;;;;;;;;5.33;5.33;;;;;24.54;46.40;101039.91;5096777;27;45447;-81
